createdAt,value
2019-03-21T06:42:50.306Z,0.02
2019-03-21T06:44:50.351Z,0.10
2019-03-21T06:46:50.643Z,0.17
2019-03-21T06:48:49.689Z,0.30
2019-03-21T06:50:49.839Z,0.35
2019-03-21T06:52:49.848Z,0.46
2019-03-21T06:54:50.021Z,0.56
2019-03-21T06:56:50.279Z,0.61
2019-03-21T06:58:52.980Z,0.63
2019-03-21T07:00:50.035Z,0.71
2019-03-21T07:02:50.034Z,0.88
2019-03-21T07:04:50.434Z,0.9
2019-03-21T07:06:50.605Z,1.0
2019-03-21T07:08:49.735Z,1.0
2019-03-21T07:10:49.734Z,1.1
2019-03-21T07:12:49.807Z,1.2
2019-03-21T07:14:49.779Z,1.2
2019-03-21T07:17:01.110Z,1.3
2019-03-21T07:18:50.051Z,1.3
2019-03-21T07:20:50.193Z,1.4
2019-03-21T07:22:50.269Z,1.5
2019-03-21T07:24:50.292Z,1.5
2019-03-21T07:26:50.463Z,1.6
2019-03-21T07:28:50.495Z,1.7
2019-03-21T07:30:50.480Z,1.8
2019-03-21T07:32:50.553Z,1.9
2019-03-21T07:34:49.972Z,1.9
2019-03-21T07:36:50.135Z,2.0
2019-03-21T07:38:50.167Z,2.1
2019-03-21T07:40:50.211Z,2.2
2019-03-21T07:42:50.200Z,2.2
2019-03-21T07:44:50.210Z,2.4
2019-03-21T07:46:50.345Z,2.4
2019-03-21T07:48:50.468Z,2.4
2019-03-21T07:50:50.538Z,2.5
2019-03-21T07:52:49.742Z,2.7
2019-03-21T07:54:49.786Z,2.7
2019-03-21T07:56:49.991Z,2.7
2019-03-21T07:58:50.025Z,2.8
2019-03-21T08:00:50.131Z,3.0
2019-03-21T08:02:50.241Z,3.1
2019-03-21T08:04:50.632Z,3.1
2019-03-21T08:06:49.800Z,3.1
2019-03-21T08:08:49.943Z,3.3
2019-03-21T08:10:50.010Z,3.3
2019-03-21T08:12:50.105Z,3.5
2019-03-21T08:14:50.186Z,3.6
2019-03-21T08:16:50.358Z,3.7
2019-03-21T08:18:50.444Z,3.8
2019-03-21T08:21:00.341Z,3.9
2019-03-21T08:22:50.368Z,3.9
2019-03-21T08:24:50.454Z,4.0
2019-03-21T08:26:49.701Z,4.1
2019-03-21T08:28:49.697Z,4.2
2019-03-21T08:30:49.800Z,4.2
2019-03-21T08:32:49.848Z,4.3
2019-03-21T08:34:50.354Z,4.4
2019-03-21T08:36:50.521Z,4.6
2019-03-21T08:38:50.552Z,4.7
2019-03-21T08:40:50.617Z,4.7
2019-03-21T08:42:49.714Z,4.7
2019-03-21T08:44:50.657Z,4.8
2019-03-21T08:46:49.784Z,4.9
2019-03-21T08:48:49.837Z,5.1
2019-03-21T08:50:49.922Z,5.1
2019-03-21T08:52:49.988Z,5.1
2019-03-21T08:54:50.122Z,5.2
2019-03-21T08:56:50.244Z,5.3
2019-03-21T08:58:50.397Z,5.3
2019-03-21T09:00:50.457Z,5.4
2019-03-21T09:02:50.436Z,5.5
2019-03-21T09:04:49.864Z,5.6
2019-03-21T09:06:51.692Z,5.7
2019-03-21T09:08:49.871Z,5.8
2019-03-21T09:10:49.919Z,5.8
2019-03-21T09:12:50.031Z,5.9
2019-03-21T09:14:50.105Z,6.0
2019-03-21T09:16:50.238Z,6.1
2019-03-21T09:18:50.203Z,6.1
2019-03-21T09:20:50.260Z,6.3
2019-03-21T09:22:50.450Z,6.4
2019-03-21T09:24:50.468Z,6.4
2019-03-21T09:26:50.608Z,6.7
2019-03-21T09:28:50.669Z,6.7
2019-03-21T09:30:51.166Z,6.7
2019-03-21T09:32:50.297Z,6.8
2019-03-21T09:34:49.777Z,7.0
2019-03-21T09:36:50.026Z,7.1
2019-03-21T09:38:50.080Z,7.1
2019-03-21T09:40:50.197Z,7.2
2019-03-21T09:42:50.319Z,7.3
2019-03-21T09:44:50.465Z,7.4
2019-03-21T09:46:51.502Z,7.4
2019-03-21T09:48:50.551Z,7.6
2019-03-21T09:50:50.599Z,7.6
2019-03-21T09:52:49.688Z,7.8
2019-03-21T09:54:49.713Z,7.8
2019-03-21T09:56:49.889Z,7.9
2019-03-21T09:58:49.952Z,8.0
2019-03-21T10:00:49.961Z,8.2
2019-03-21T10:02:49.954Z,8.4
2019-03-21T10:04:50.408Z,8.4
2019-03-21T10:06:50.606Z,8.4
2019-03-21T10:08:50.629Z,8.6
2019-03-21T10:10:49.724Z,8.7
2019-03-21T10:12:49.730Z,8.8
2019-03-21T10:14:49.762Z,8.8
2019-03-21T10:16:49.906Z,8.9
2019-03-21T10:18:49.874Z,9.0
2019-03-21T10:20:49.880Z,9.2
2019-03-21T10:22:50.066Z,9.3
2019-03-21T10:24:50.031Z,9.3
2019-03-21T10:26:50.273Z,9.3
2019-03-21T10:28:50.266Z,9.4
2019-03-21T10:30:50.350Z,9.6
2019-03-21T10:32:50.348Z,9.7
2019-03-21T10:34:49.694Z,9.7
2019-03-21T10:36:49.756Z,9.8
2019-03-21T10:38:49.779Z,9.9
2019-03-21T10:40:49.817Z,10.1
2019-03-21T10:42:49.913Z,10.1
2019-03-21T10:44:49.872Z,10.1
2019-03-21T10:46:50.055Z,10.2
2019-03-21T10:48:50.008Z,10.4
2019-03-21T10:50:50.091Z,10.5
2019-03-21T10:52:50.121Z,10.6
2019-03-21T10:54:50.283Z,10.7
2019-03-21T10:56:50.437Z,10.7
2019-03-21T10:58:50.509Z,10.8
2019-03-21T11:00:50.576Z,11.0
2019-03-21T11:02:50.578Z,11.0
2019-03-21T11:04:49.976Z,11.0
2019-03-21T11:06:50.148Z,11.2
2019-03-21T11:08:50.553Z,11.3
2019-03-21T11:10:50.582Z,11.3
2019-03-21T11:12:50.620Z,11.4
2019-03-21T11:14:49.741Z,11.5
2019-03-21T11:16:49.964Z,11.6
2019-03-21T11:18:49.982Z,11.6
2019-03-21T11:20:49.992Z,11.7
2019-03-21T11:22:50.099Z,11.7
2019-03-21T11:24:50.117Z,11.8
2019-03-21T11:26:50.224Z,11.9
2019-03-21T11:28:50.250Z,12.0
2019-03-21T11:30:50.325Z,12.0
2019-03-21T11:32:50.332Z,12.1
2019-03-21T11:34:49.780Z,12.2
2019-03-21T11:36:49.971Z,12.3
2019-03-21T11:38:49.996Z,12.3
2019-03-21T11:40:50.036Z,12.4
2019-03-21T11:42:50.087Z,12.4
2019-03-21T11:44:50.120Z,12.6
2019-03-21T11:46:50.200Z,12.6
2019-03-21T11:48:50.206Z,12.6
2019-03-21T11:50:50.390Z,12.6
2019-03-21T11:52:50.465Z,12.7
2019-03-21T11:54:50.509Z,12.7
2019-03-21T11:56:50.659Z,12.8
2019-03-21T11:58:49.738Z,12.8
2019-03-21T12:00:49.778Z,12.9
2019-03-21T12:02:49.870Z,13.0
2019-03-21T12:04:50.224Z,13.1
2019-03-21T12:06:50.675Z,13.1
2019-03-21T12:08:50.694Z,13.2
2019-03-21T12:10:49.709Z,13.2
2019-03-21T12:12:49.881Z,13.3
2019-03-21T12:14:49.896Z,13.3
2019-03-21T12:16:50.152Z,13.4
2019-03-21T12:18:50.159Z,13.4
2019-03-21T12:20:50.148Z,13.4
2019-03-21T12:22:50.232Z,13.4
2019-03-21T12:24:50.322Z,13.5
2019-03-21T12:26:50.464Z,13.5
2019-03-21T12:28:50.671Z,13.5
2019-03-21T12:30:49.741Z,13.6
2019-03-21T12:32:49.710Z,13.7
2019-03-21T12:34:50.286Z,13.7
2019-03-21T12:36:50.464Z,13.7
2019-03-21T12:38:50.456Z,13.7
2019-03-21T12:40:50.493Z,13.7
2019-03-21T12:42:50.643Z,13.8
2019-03-21T12:44:49.953Z,13.8
2019-03-21T12:46:50.069Z,13.8
2019-03-21T12:48:50.175Z,13.8
2019-03-21T12:50:50.154Z,13.9
2019-03-21T12:52:50.315Z,14.0
2019-03-21T12:54:50.395Z,14.0
2019-03-21T12:56:49.746Z,14.1
2019-03-21T12:58:49.902Z,14.1
2019-03-21T13:00:49.988Z,14.1
2019-03-21T13:02:50.046Z,14.2
2019-03-21T13:04:50.497Z,14.2
2019-03-21T13:06:50.641Z,14.2
2019-03-21T13:08:50.596Z,14.2
2019-03-21T13:10:50.664Z,14.2
2019-03-21T13:12:49.884Z,14.3
2019-03-21T13:14:49.873Z,14.3
2019-03-21T13:16:50.029Z,14.3
2019-03-21T13:18:50.138Z,14.3
2019-03-21T13:20:50.219Z,14.4
2019-03-21T13:22:54.318Z,14.4
2019-03-21T13:24:50.414Z,14.4
2019-03-21T13:26:50.636Z,14.5
2019-03-21T13:28:50.672Z,14.5
2019-03-21T13:30:49.767Z,14.6
2019-03-21T13:32:50.224Z,14.6
2019-03-21T13:34:49.778Z,14.6
2019-03-21T13:36:50.040Z,14.6
2019-03-21T13:38:50.036Z,14.7
2019-03-21T13:40:50.112Z,14.7
2019-03-21T13:42:50.147Z,14.7
2019-03-21T13:44:50.249Z,14.7
2019-03-21T13:46:50.434Z,14.8
2019-03-21T13:48:50.453Z,14.8
2019-03-21T13:50:50.428Z,14.9
2019-03-21T13:52:50.540Z,14.9
2019-03-21T13:54:50.663Z,15.0
2019-03-21T13:56:49.834Z,15.0
2019-03-21T13:58:49.979Z,15.0
2019-03-21T14:00:50.033Z,15.0
2019-03-21T14:02:50.163Z,15.0
2019-03-21T14:04:50.536Z,15.0
2019-03-21T14:06:49.775Z,15.0
2019-03-21T14:08:49.799Z,15.1
2019-03-21T14:10:50.144Z,15.1
2019-03-21T14:12:50.205Z,15.1
2019-03-21T14:14:50.233Z,15.2
2019-03-21T14:16:51.396Z,15.2
2019-03-21T14:18:50.434Z,15.2
2019-03-21T14:20:50.487Z,15.2
2019-03-21T14:22:50.562Z,15.2
2019-03-21T14:24:50.621Z,15.3
2019-03-21T14:26:49.796Z,15.3
2019-03-21T14:28:49.836Z,15.3
2019-03-21T14:30:49.925Z,15.3
2019-03-21T14:32:49.898Z,15.3
2019-03-21T14:34:50.378Z,15.4
2019-03-21T14:36:50.568Z,15.4
2019-03-21T14:38:50.592Z,15.4
2019-03-21T14:40:49.765Z,15.4
2019-03-21T14:42:50.136Z,15.4
2019-03-21T14:44:50.369Z,15.4
2019-03-21T14:46:50.572Z,15.5
2019-03-21T14:48:50.696Z,15.5
2019-03-21T14:50:49.728Z,15.5
2019-03-21T14:52:49.760Z,15.5
2019-03-21T14:54:49.818Z,15.4
2019-03-21T14:56:50.050Z,15.5
2019-03-21T14:58:50.088Z,15.5
2019-03-21T15:00:50.121Z,15.5
2019-03-21T15:02:50.259Z,15.6
2019-03-21T15:04:50.600Z,15.6
2019-03-21T15:06:49.743Z,15.6
2019-03-21T15:08:49.783Z,15.6
2019-03-21T15:10:49.800Z,15.6
2019-03-21T15:12:49.984Z,15.6
2019-03-21T15:14:50.035Z,15.6
2019-03-21T15:16:50.269Z,15.6
2019-03-21T15:18:50.324Z,15.7
2019-03-21T15:20:50.318Z,15.7
2019-03-21T15:22:50.467Z,15.7
2019-03-21T15:24:50.513Z,15.7
2019-03-21T15:26:51.620Z,15.7
2019-03-21T15:28:50.629Z,15.7
2019-03-21T15:30:49.694Z,15.7
2019-03-21T15:32:49.737Z,15.7
2019-03-21T15:34:50.237Z,15.6
2019-03-21T15:36:50.397Z,15.6
2019-03-21T15:38:50.503Z,15.6
2019-03-21T15:40:50.548Z,15.7
2019-03-21T15:42:49.686Z,15.6
2019-03-21T15:44:52.061Z,15.6
2019-03-21T15:46:50.242Z,15.6
2019-03-21T15:48:50.385Z,15.6
2019-03-21T15:50:50.466Z,15.6
2019-03-21T15:52:50.496Z,15.6
2019-03-21T15:54:50.545Z,15.6
2019-03-21T15:56:49.804Z,15.6
2019-03-21T15:58:49.943Z,15.6
2019-03-21T16:00:49.932Z,15.6
2019-03-21T16:02:49.977Z,15.5
2019-03-21T16:04:50.352Z,15.5
2019-03-21T16:06:50.668Z,15.5
2019-03-21T16:08:50.682Z,15.5
2019-03-21T16:10:50.640Z,15.5
2019-03-21T16:12:49.841Z,15.4
2019-03-21T16:14:49.860Z,15.4
2019-03-21T16:16:50.187Z,15.4
2019-03-21T16:18:50.288Z,15.4
2019-03-21T16:20:50.317Z,15.4
2019-03-21T16:22:50.349Z,15.37
2019-03-21T16:24:50.406Z,15.29
2019-03-21T16:26:50.711Z,15.14
2019-03-21T16:28:49.925Z,15.08
2019-03-21T16:30:50.010Z,14.95
2019-03-21T16:32:50.109Z,14.89
2019-03-21T16:34:50.541Z,14.79
2019-03-21T16:36:50.673Z,14.69
2019-03-21T16:38:49.713Z,14.63
2019-03-21T16:40:49.712Z,14.51
2019-03-21T16:42:49.884Z,14.42
2019-03-21T16:44:50.001Z,14.36
2019-03-21T16:46:50.223Z,14.27
2019-03-21T16:48:50.264Z,14.20
2019-03-21T16:50:50.556Z,14.09
2019-03-21T16:52:49.736Z,14.00
2019-03-21T16:54:49.819Z,13.94
2019-03-21T16:56:50.022Z,13.77
2019-03-21T16:58:50.103Z,13.70
2019-03-21T17:00:50.111Z,13.61
2019-03-21T17:02:50.138Z,13.55
2019-03-21T17:04:50.736Z,13.43
2019-03-21T17:06:50.121Z,13.34
2019-03-21T17:08:50.205Z,13.21
2019-03-21T17:10:50.371Z,13.17
2019-03-21T17:12:50.618Z,13.03
2019-03-21T17:14:49.765Z,12.94
2019-03-21T17:16:50.040Z,12.72
2019-03-21T17:18:50.249Z,12.56
2019-03-21T17:20:50.471Z,12.39
2019-03-21T17:22:50.730Z,12.28
2019-03-21T17:24:49.879Z,12.09
2019-03-21T17:26:50.041Z,11.98
2019-03-21T17:28:50.149Z,11.81
2019-03-21T17:30:50.137Z,11.64
2019-03-21T17:32:50.209Z,11.43
2019-03-21T17:34:50.480Z,11.31
2019-03-21T17:36:50.683Z,11.14
2019-03-21T17:38:49.761Z,11.02
2019-03-21T17:40:49.788Z,10.93
2019-03-21T17:42:49.773Z,10.69
2019-03-21T17:44:49.816Z,10.54
2019-03-21T17:46:50.076Z,10.34
2019-03-21T17:48:50.114Z,10.22
2019-03-21T17:50:50.230Z,10.13
2019-03-21T17:52:50.400Z,9.93
2019-03-21T17:54:50.441Z,9.88
2019-03-21T17:56:49.788Z,9.73
2019-03-21T17:58:49.753Z,9.67
2019-03-21T18:00:49.836Z,9.56
2019-03-21T18:02:49.830Z,9.49
2019-03-21T18:04:50.401Z,9.40
2019-03-21T18:06:50.619Z,9.31
2019-03-21T18:08:50.671Z,9.25
2019-03-21T18:10:50.687Z,9.17
2019-03-21T18:12:49.792Z,9.12
2019-03-21T18:14:49.773Z,9.00
2019-03-21T18:16:50.017Z,8.95
2019-03-21T18:18:50.025Z,8.90
2019-03-21T18:20:50.149Z,8.83
2019-03-21T18:22:50.179Z,8.76
2019-03-21T18:24:54.548Z,8.66
2019-03-21T18:26:49.809Z,8.63
2019-03-21T18:28:49.967Z,8.53
2019-03-21T18:30:50.017Z,8.49
2019-03-21T18:32:50.076Z,8.36
2019-03-21T18:34:50.444Z,8.24
2019-03-21T18:36:50.655Z,8.17
2019-03-21T18:39:00.223Z,8.10
2019-03-21T18:40:50.369Z,8.06
2019-03-21T18:42:50.477Z,7.97
2019-03-21T18:44:50.886Z,7.87
2019-03-21T18:46:50.268Z,7.81
2019-03-21T18:48:50.359Z,7.80
2019-03-21T18:50:50.492Z,7.72
2019-03-21T18:52:50.630Z,7.66
2019-03-21T18:54:50.718Z,7.53
2019-03-21T18:56:49.858Z,7.43
2019-03-21T18:58:50.032Z,7.34
2019-03-21T19:00:50.015Z,7.30
2019-03-21T19:02:50.152Z,7.21
2019-03-21T19:04:50.547Z,7.17
2019-03-21T19:06:50.113Z,7.14
2019-03-21T19:08:50.265Z,7.05
2019-03-21T19:10:50.478Z,6.97
2019-03-21T19:12:50.477Z,6.88
2019-03-21T19:14:50.570Z,6.86
2019-03-21T19:16:49.874Z,6.78
2019-03-21T19:18:49.916Z,6.69
2019-03-21T19:20:50.036Z,6.66
2019-03-21T19:22:50.353Z,6.60
2019-03-21T19:24:50.379Z,6.55
2019-03-21T19:26:50.588Z,6.55
2019-03-21T19:28:49.704Z,6.47
2019-03-21T19:30:49.848Z,6.45
2019-03-21T19:32:49.906Z,6.41
2019-03-21T19:34:50.385Z,6.41
2019-03-21T19:36:50.646Z,6.32
2019-03-21T19:38:49.728Z,6.23
2019-03-21T19:40:49.772Z,6.22
2019-03-21T19:42:49.832Z,6.12
2019-03-21T19:44:49.861Z,6.05
2019-03-21T19:46:50.095Z,6.02
2019-03-21T19:48:50.906Z,5.96
2019-03-21T19:50:49.928Z,5.96
2019-03-21T19:52:49.998Z,5.94
2019-03-21T19:54:50.085Z,5.84
2019-03-21T19:56:50.294Z,5.79
2019-03-21T19:58:50.456Z,5.77
2019-03-21T20:00:50.423Z,5.71
2019-03-21T20:02:50.519Z,5.63
2019-03-21T20:04:49.747Z,5.63
2019-03-21T20:06:50.191Z,5.58
2019-03-21T20:08:50.297Z,5.56
2019-03-21T20:10:50.402Z,5.51
2019-03-21T20:12:50.573Z,5.50
2019-03-21T20:14:49.764Z,5.42
2019-03-21T20:16:49.864Z,5.41
2019-03-21T20:18:49.925Z,5.39
2019-03-21T20:20:49.933Z,5.37
2019-03-21T20:22:49.977Z,5.35
2019-03-21T20:24:50.010Z,5.32
2019-03-21T20:26:50.275Z,5.29
2019-03-21T20:28:50.361Z,5.31
2019-03-21T20:30:50.390Z,5.34
2019-03-21T20:32:50.488Z,5.36
2019-03-21T20:34:49.908Z,5.32
2019-03-21T20:36:50.075Z,5.28
2019-03-21T20:38:50.120Z,5.26
2019-03-21T20:40:50.158Z,5.28
2019-03-21T20:42:50.239Z,5.31
2019-03-21T20:44:50.419Z,5.27
2019-03-21T20:46:50.650Z,5.19
2019-03-21T20:48:49.748Z,5.11
2019-03-21T20:50:49.791Z,5.08
2019-03-21T20:52:49.989Z,5.04
2019-03-21T20:54:50.011Z,5.01
2019-03-21T20:56:50.166Z,4.94
2019-03-21T20:58:50.174Z,4.89
2019-03-21T21:00:50.230Z,4.81
2019-03-21T21:02:50.321Z,4.74
2019-03-21T21:04:50.650Z,4.74
2019-03-21T21:06:49.945Z,4.74
2019-03-21T21:08:50.039Z,4.72
2019-03-21T21:10:50.119Z,4.71
2019-03-21T21:12:50.177Z,4.70
2019-03-21T21:14:50.207Z,4.73
2019-03-21T21:16:50.387Z,4.72
2019-03-21T21:18:50.408Z,4.67
2019-03-21T21:20:50.475Z,4.61
2019-03-21T21:22:50.548Z,4.56
2019-03-21T21:24:50.607Z,4.50
2019-03-21T21:26:49.784Z,4.45
2019-03-21T21:28:49.883Z,4.38
2019-03-21T21:30:49.978Z,4.33
2019-03-21T21:32:50.012Z,4.27
2019-03-21T21:34:50.335Z,4.25
2019-03-21T21:36:50.605Z,4.24
2019-03-21T21:38:50.622Z,4.27
2019-03-21T21:40:50.640Z,4.26
2019-03-21T21:42:50.768Z,4.22
2019-03-21T21:44:49.847Z,4.16
2019-03-21T21:46:50.102Z,4.13
2019-03-21T21:48:50.157Z,4.07
2019-03-21T21:50:50.191Z,4.01
2019-03-21T21:52:50.282Z,3.92
2019-03-21T21:54:50.384Z,3.89
2019-03-21T21:56:50.606Z,3.87
2019-03-21T21:58:50.648Z,3.85
2019-03-21T22:00:49.758Z,3.81
2019-03-21T22:02:49.737Z,3.80
2019-03-21T22:04:50.241Z,3.78
2019-03-21T22:06:50.533Z,3.73
2019-03-21T22:08:50.525Z,3.73
2019-03-21T22:10:50.510Z,3.68
2019-03-21T22:12:50.593Z,3.65
2019-03-21T22:14:50.641Z,3.63
2019-03-21T22:16:49.948Z,3.63
2019-03-21T22:18:50.103Z,3.63
2019-03-21T22:20:50.207Z,3.57
2019-03-21T22:22:50.316Z,3.54
2019-03-21T22:24:50.401Z,3.47
2019-03-21T22:26:49.701Z,3.46
2019-03-21T22:28:49.768Z,3.45
2019-03-21T22:30:49.772Z,3.39
2019-03-21T22:32:49.897Z,3.31
2019-03-21T22:34:50.241Z,3.28
2019-03-21T22:36:50.491Z,3.28
2019-03-21T22:38:49.702Z,3.25
2019-03-21T22:40:49.691Z,3.23
2019-03-21T22:42:49.930Z,3.19
2019-03-21T22:44:49.995Z,3.19
2019-03-21T22:46:50.318Z,3.14
2019-03-21T22:48:50.437Z,3.09
2019-03-21T22:50:50.498Z,3.07
2019-03-21T22:52:50.644Z,3.05
2019-03-21T22:54:49.780Z,3.03
2019-03-21T22:56:49.930Z,3.04
2019-03-21T22:58:50.025Z,3.02
2019-03-21T23:00:50.079Z,3.01
2019-03-21T23:02:50.247Z,2.99
2019-03-21T23:04:50.699Z,2.94
2019-03-21T23:06:50.033Z,2.94
2019-03-21T23:08:50.177Z,2.90
2019-03-21T23:10:50.362Z,2.89
2019-03-21T23:12:50.508Z,2.86
2019-03-21T23:14:50.717Z,2.86
2019-03-21T23:16:50.147Z,2.85
2019-03-21T23:18:50.243Z,2.82
2019-03-21T23:20:50.362Z,2.78
2019-03-21T23:22:50.459Z,2.78
2019-03-21T23:24:50.681Z,2.77
2019-03-21T23:26:53.671Z,2.76
2019-03-21T23:28:49.830Z,2.75
2019-03-21T23:30:49.899Z,2.72
2019-03-21T23:32:50.015Z,2.69
2019-03-21T23:34:50.515Z,2.64
2019-03-21T23:36:49.790Z,2.61
2019-03-21T23:38:50.011Z,2.55
2019-03-21T23:40:50.287Z,2.54
2019-03-21T23:42:50.414Z,2.57
2019-03-21T23:44:50.576Z,2.60
2019-03-21T23:46:49.920Z,2.60
2019-03-21T23:48:50.092Z,2.56
2019-03-21T23:50:50.199Z,2.54
2019-03-21T23:52:50.395Z,2.50
2019-03-21T23:54:50.484Z,2.44
2019-03-21T23:56:49.867Z,2.43
2019-03-21T23:58:50.058Z,2.40
